createdAt,value
2019-03-25T00:00:34.563Z,4.81
2019-03-25T00:05:34.516Z,4.69
2019-03-25T00:10:34.549Z,4.63
2019-03-25T00:15:34.524Z,4.56
2019-03-25T00:20:34.527Z,4.5
2019-03-25T00:25:34.549Z,4.44
2019-03-25T00:30:34.565Z,4.38
2019-03-25T00:35:34.562Z,4.25
2019-03-25T00:40:34.531Z,4.19
2019-03-25T00:45:34.536Z,4.13
2019-03-25T00:50:34.537Z,4.13
2019-03-25T00:55:34.545Z,4.19
2019-03-25T01:00:34.546Z,4.13
2019-03-25T01:05:34.558Z,4.13
2019-03-25T01:10:34.542Z,4.19
2019-03-25T01:15:34.561Z,4.13
2019-03-25T01:20:34.578Z,4.06
2019-03-25T01:25:34.551Z,4
2019-03-25T01:30:34.557Z,4
2019-03-25T01:35:34.567Z,4
2019-03-25T01:40:34.588Z,3.94
2019-03-25T01:45:34.564Z,4
2019-03-25T01:50:34.570Z,4
2019-03-25T01:55:34.574Z,3.94
2019-03-25T02:00:34.584Z,3.94
2019-03-25T02:05:34.589Z,4
2019-03-25T02:10:34.587Z,3.94
2019-03-25T02:15:34.571Z,4
2019-03-25T02:20:34.576Z,4
2019-03-25T02:25:34.586Z,3.94
2019-03-25T02:30:34.582Z,3.94
2019-03-25T02:35:34.581Z,4
2019-03-25T02:40:34.609Z,3.94
2019-03-25T02:45:34.587Z,3.81
2019-03-25T02:50:34.625Z,3.75
2019-03-25T02:55:41.113Z,3.75
2019-03-25T03:00:34.597Z,3.69
2019-03-25T03:05:34.615Z,3.63
2019-03-25T03:10:34.626Z,3.63
2019-03-25T03:15:34.617Z,3.63
2019-03-25T03:20:34.601Z,3.69
2019-03-25T03:25:34.607Z,3.75
2019-03-25T03:30:34.626Z,3.81
2019-03-25T03:35:34.650Z,3.88
2019-03-25T03:40:34.636Z,4.06
2019-03-25T03:45:34.627Z,4.25
2019-03-25T03:50:34.655Z,4.19
2019-03-25T03:55:34.620Z,4.13
2019-03-25T04:00:34.626Z,4
2019-03-25T04:05:34.739Z,3.81
2019-03-25T04:10:34.633Z,3.81
2019-03-25T04:15:34.635Z,3.94
2019-03-25T04:20:34.688Z,4
2019-03-25T04:25:34.648Z,4
2019-03-25T04:30:34.652Z,3.94
2019-03-25T04:35:34.666Z,3.88
2019-03-25T04:40:34.653Z,3.75
2019-03-25T04:45:34.643Z,3.63
2019-03-25T04:50:34.681Z,3.63
2019-03-25T04:55:34.665Z,3.63
2019-03-25T05:00:34.657Z,3.63
2019-03-25T05:05:36.014Z,3.56
2019-03-25T05:10:34.662Z,3.56
2019-03-25T05:15:34.662Z,3.63
2019-03-25T05:20:34.698Z,3.69
2019-03-25T05:25:34.670Z,3.81
2019-03-25T05:30:34.680Z,4.25
2019-03-25T05:35:34.688Z,4.63
2019-03-25T05:40:34.699Z,4.44
2019-03-25T05:45:34.674Z,4.13
2019-03-25T05:50:34.696Z,4.13
2019-03-25T05:55:34.679Z,4.19
2019-03-25T06:00:34.691Z,4.19
2019-03-25T06:05:34.708Z,4.19
2019-03-25T06:10:34.683Z,4.19
2019-03-25T06:15:34.707Z,4.13
2019-03-25T06:20:34.732Z,4.13
2019-03-25T06:25:34.737Z,4.25
2019-03-25T06:30:34.693Z,4.31
2019-03-25T06:35:34.715Z,4.31
2019-03-25T06:40:34.703Z,4.31
2019-03-25T06:45:34.703Z,4.25
2019-03-25T06:50:34.742Z,4.31
2019-03-25T06:55:34.721Z,4.31
2019-03-25T07:00:34.724Z,4.31
2019-03-25T07:05:34.717Z,4.38
2019-03-25T07:10:34.724Z,4.38
2019-03-25T07:15:34.727Z,4.38
2019-03-25T07:20:34.744Z,4.44
2019-03-25T07:25:34.722Z,4.38
2019-03-25T07:30:34.737Z,4.38
2019-03-25T07:35:34.723Z,4.31
2019-03-25T07:40:34.736Z,4.31
2019-03-25T07:45:34.729Z,4.31
2019-03-25T07:50:34.747Z,4.31
2019-03-25T07:55:34.738Z,4.44
2019-03-25T08:00:34.740Z,4.56
2019-03-25T08:05:34.795Z,4.75
2019-03-25T08:10:34.745Z,4.88
2019-03-25T08:15:34.788Z,5.06
2019-03-25T08:20:34.770Z,5.31
2019-03-25T08:25:34.782Z,5.81
2019-03-25T08:30:34.753Z,6.13
2019-03-25T08:35:34.761Z,6.31
2019-03-25T08:40:34.761Z,6.44
2019-03-25T08:45:34.758Z,6.94
2019-03-25T08:50:34.761Z,6.63
2019-03-25T08:55:34.762Z,6.31
2019-03-25T09:00:34.764Z,6.31
2019-03-25T09:05:34.788Z,6.63
2019-03-25T09:10:34.767Z,7.44
2019-03-25T09:15:34.785Z,7.13
2019-03-25T09:20:34.805Z,6.56
2019-03-25T09:25:34.799Z,6.38
2019-03-25T09:30:34.779Z,6.75
2019-03-25T09:35:34.787Z,7.25
2019-03-25T09:40:34.790Z,7.13
2019-03-25T09:45:34.783Z,7
2019-03-25T09:50:34.798Z,7.06
2019-03-25T09:55:34.791Z,7
2019-03-25T10:00:34.807Z,6.75
2019-03-25T10:05:34.812Z,6.94
2019-03-25T10:10:34.795Z,7.38
2019-03-25T10:15:34.827Z,7.38
2019-03-25T10:20:34.828Z,7.88
2019-03-25T10:25:34.814Z,9.25
2019-03-25T10:30:34.804Z,9.44
2019-03-25T10:35:34.827Z,9.69
2019-03-25T10:40:34.843Z,9.5
2019-03-25T10:45:34.818Z,8.5
2019-03-25T10:50:34.833Z,8.19
2019-03-25T10:55:34.826Z,8
2019-03-25T11:00:34.837Z,7.81
2019-03-25T11:05:34.847Z,8.63
2019-03-25T11:10:34.835Z,8.56
2019-03-25T11:15:34.832Z,8.44
2019-03-25T11:20:34.850Z,8.31
2019-03-25T11:25:34.845Z,8
2019-03-25T11:30:34.852Z,7.88
2019-03-25T11:35:34.872Z,7.69
2019-03-25T11:40:34.838Z,7.88
2019-03-25T11:45:34.844Z,8.56
2019-03-25T11:50:34.866Z,8.31
2019-03-25T11:55:34.845Z,8.38
2019-03-25T12:00:34.851Z,8.06
2019-03-25T12:05:34.846Z,7.81
2019-03-25T12:10:34.860Z,7.63
2019-03-25T12:15:34.863Z,7.38
2019-03-25T12:20:34.889Z,7.19
2019-03-25T12:25:34.868Z,7.31
2019-03-25T12:30:34.874Z,7.38
2019-03-25T12:35:34.897Z,7.25
2019-03-25T12:40:34.871Z,7.13
2019-03-25T12:45:34.869Z,7.13
2019-03-25T12:50:34.869Z,7.13
2019-03-25T12:55:34.879Z,6.88
2019-03-25T13:00:34.980Z,6.25
2019-03-25T13:05:34.879Z,5.06
2019-03-25T13:10:34.881Z,4.69
2019-03-25T13:15:34.882Z,4.44
2019-03-25T13:20:34.885Z,4.38
2019-03-25T13:25:34.893Z,4.81
2019-03-25T13:30:34.902Z,4.75
2019-03-25T13:35:34.911Z,4.75
2019-03-25T13:40:34.905Z,4.75
2019-03-25T13:45:34.904Z,4.75
2019-03-25T13:50:34.899Z,4.94
2019-03-25T13:55:34.904Z,5.13
2019-03-25T14:00:34.910Z,5.44
2019-03-25T14:05:34.920Z,6.38
2019-03-25T14:10:34.915Z,6.81
2019-03-25T14:15:34.930Z,7.06
2019-03-25T14:20:34.935Z,6.94
2019-03-25T14:25:34.958Z,7.13
2019-03-25T14:30:34.916Z,7.19
2019-03-25T14:35:34.920Z,6.81
2019-03-25T14:40:34.949Z,6.56
2019-03-25T14:45:34.930Z,6.19
2019-03-25T14:50:34.939Z,5.94
2019-03-25T14:55:34.959Z,5.69
2019-03-25T15:00:34.938Z,5.56
2019-03-25T15:05:34.940Z,5.5
2019-03-25T15:10:35.018Z,5.5
2019-03-25T15:15:34.947Z,5.63
2019-03-25T15:20:34.944Z,5.69
2019-03-25T15:25:34.976Z,5.81
2019-03-25T15:30:36.081Z,5.75
2019-03-25T15:35:34.949Z,5.69
2019-03-25T15:40:35.041Z,5.69
2019-03-25T15:45:34.973Z,5.94
2019-03-25T15:50:34.976Z,5.88
2019-03-25T15:55:34.956Z,5.56
2019-03-25T16:00:34.967Z,5.19
2019-03-25T16:05:34.962Z,4.69
2019-03-25T16:10:35.005Z,4.69
2019-03-25T16:15:34.971Z,4.69
2019-03-25T16:20:34.973Z,4.75
2019-03-25T16:25:34.991Z,4.94
2019-03-25T16:30:34.980Z,5
2019-03-25T16:35:34.981Z,5.06
2019-03-25T16:40:35.002Z,5.13
2019-03-25T16:45:34.993Z,5.19
2019-03-25T16:50:34.986Z,5.19
2019-03-25T16:55:35.023Z,5.19
2019-03-25T17:00:34.997Z,5.13
2019-03-25T17:05:34.987Z,5
2019-03-25T17:10:34.998Z,4.94
2019-03-25T17:15:34.997Z,4.88
2019-03-25T17:20:34.995Z,4.81
2019-03-25T17:25:35.019Z,4.69
2019-03-25T17:30:35.018Z,4.69
2019-03-25T17:35:35.011Z,4.63
2019-03-25T17:40:35.120Z,4.5
2019-03-25T17:45:35.009Z,4.31
2019-03-25T17:50:35.013Z,4.19
2019-03-25T17:55:35.043Z,4.13
2019-03-25T18:00:35.048Z,4
2019-03-25T18:05:35.033Z,4
2019-03-25T18:10:35.043Z,4
2019-03-25T18:15:35.049Z,4
2019-03-25T18:20:35.022Z,4.06
2019-03-25T18:25:35.038Z,4.06
2019-03-25T18:30:35.056Z,4.06
2019-03-25T18:35:35.035Z,4.19
2019-03-25T18:40:35.061Z,4.31
2019-03-25T18:45:35.032Z,4.44
2019-03-25T18:50:35.037Z,4.44
2019-03-25T18:55:35.053Z,4.38
2019-03-25T19:00:35.062Z,4.25
2019-03-25T19:05:35.076Z,4.06
2019-03-25T19:10:35.111Z,4
2019-03-25T19:15:35.058Z,4
2019-03-25T19:20:35.100Z,4.06
2019-03-25T19:25:35.058Z,4.13
2019-03-25T19:30:35.069Z,4
2019-03-25T19:35:35.056Z,3.88
2019-03-25T19:40:35.104Z,3.75
2019-03-25T19:45:35.096Z,3.63
2019-03-25T19:50:35.072Z,3.56
2019-03-25T19:55:35.127Z,3.63
2019-03-25T20:00:35.098Z,3.69
2019-03-25T20:05:35.082Z,3.88
2019-03-25T20:10:35.167Z,3.94
2019-03-25T20:15:45.258Z,4
2019-03-25T20:20:35.088Z,4
2019-03-25T20:25:35.147Z,4
2019-03-25T20:30:35.095Z,4.06
2019-03-25T20:35:35.095Z,4.06
2019-03-25T20:40:35.129Z,4.06
2019-03-25T20:45:35.119Z,4.06
2019-03-25T20:50:35.164Z,4.06
2019-03-25T20:55:35.114Z,4
2019-03-25T21:00:35.162Z,4.06
2019-03-25T21:05:35.177Z,4.13
2019-03-25T21:10:35.103Z,4.19
2019-03-25T21:15:35.114Z,4.13
2019-03-25T21:20:35.110Z,4.19
2019-03-25T21:25:35.248Z,4.19
2019-03-25T21:30:46.902Z,4.19
2019-03-25T21:35:35.160Z,4.19
2019-03-25T21:40:35.141Z,4.19
2019-03-25T21:45:35.144Z,4.25
2019-03-25T21:50:35.128Z,4.25
2019-03-25T21:55:35.182Z,4.31
2019-03-25T22:00:35.123Z,4.31
2019-03-25T22:05:35.134Z,4.31
2019-03-25T22:10:35.185Z,4.31
2019-03-25T22:15:35.134Z,4.25
2019-03-25T22:20:35.146Z,4.19
2019-03-25T22:25:35.157Z,4.13
2019-03-25T22:30:35.142Z,4.13
2019-03-25T22:35:35.145Z,4.13
2019-03-25T22:40:35.159Z,4.13
2019-03-25T22:45:35.148Z,4.06
2019-03-25T22:50:35.144Z,4
2019-03-25T22:55:35.167Z,3.94
2019-03-25T23:00:35.280Z,4
2019-03-25T23:05:35.153Z,4.19
2019-03-25T23:10:35.157Z,4.25
2019-03-25T23:15:35.181Z,4.31
2019-03-25T23:20:35.164Z,4.38
2019-03-25T23:25:35.291Z,4.5
2019-03-25T23:30:35.168Z,4.44
2019-03-25T23:35:35.179Z,4.44
2019-03-25T23:40:35.190Z,4.38
2019-03-25T23:45:35.172Z,4.13
2019-03-25T23:50:35.187Z,4
2019-03-25T23:55:35.181Z,3.88
